Terminal Aerodrome Forecast
Issued by NWS Blacksburg, VA

Home | Current Version | Previous Version | Text Only | Print | Product List | Glossary On
Versions: 1 2 3 4 5 6 7 8 9 10 11 12 13 14 15 16 17 18 19 20 21 22
000
FTUS41 KRNK 221725
TAFBLF
TAF
KBLF 221725Z 2218/2318 19005KT P6SM OVC027
     FM221900 VRB03KT P6SM OVC015
      TEMPO 2219/2223 2SM -RA BR OVC020
     FM230000 17004KT 6SM BR OVC090
     FM230300 VRB03KT P6SM BKN090
     FM230700 VRB03KT P6SM BKN045
     FM231600 20004KT P6SM BKN035=

USA.gov is the U.S. government's official web portal to all federal, state and local government web resources and services.